Time;durP1;ratioP1;P1;durP2;ratioP2;P2;SDS_P1;SDS_P2;PMS_P1;PMS_P2;Temp;Humidity;BMP_temperature;BMP_pressure;BME280_temperature;BME280_humidity;BME280_pressure;Samples;Min_cycle;Max_cycle;Signal;HPM_P1;HPM_P2
2023/08/30 00:02:03;;;;;;;8.80;7.90;;;16.80;99.90;;;;;;5100238;28;20545;-82
2023/08/30 00:04:30;;;;;;;7.30;6.60;;;16.70;99.90;;;;;;5094363;28;20492;-81
2023/08/30 00:06:57;;;;;;;9.07;6.30;;;16.70;99.90;;;;;;5076788;28;20464;-83
2023/08/30 00:09:25;;;;;;;7.77;6.93;;;16.60;99.90;;;;;;5091772;28;20553;-83
2023/08/30 00:11:51;;;;;;;7.20;6.30;;;16.60;99.90;;;;;;5092211;28;20460;-82
2023/08/30 00:14:18;;;;;;;8.80;7.30;;;16.60;99.90;;;;;;5083659;28;20458;-82
2023/08/30 00:16:45;;;;;;;8.90;7.53;;;16.50;99.90;;;;;;5080249;28;20941;-82
2023/08/30 00:19:13;;;;;;;9.80;6.40;;;16.50;99.90;;;;;;5089577;28;20495;-82
2023/08/30 00:21:40;;;;;;;12.13;7.10;;;16.40;99.90;;;;;;5084826;28;20562;-82
2023/08/30 00:24:07;;;;;;;9.17;6.67;;;16.40;99.90;;;;;;5091542;28;20477;-83
2023/08/30 00:26:34;;;;;;;7.57;6.40;;;16.40;99.90;;;;;;5085266;28;20465;-82
2023/08/30 00:29:00;;;;;;;7.23;6.60;;;16.30;99.90;;;;;;5080835;28;20578;-82
2023/08/30 00:31:27;;;;;;;6.77;6.07;;;16.30;99.90;;;;;;5090806;28;20459;-83
2023/08/30 00:33:54;;;;;;;7.40;6.70;;;16.20;99.90;;;;;;5080559;28;20461;-81
2023/08/30 00:36:22;;;;;;;6.83;6.13;;;16.20;99.90;;;;;;5081955;28;20446;-82
2023/08/30 00:38:49;;;;;;;7.23;6.43;;;16.20;99.90;;;;;;5086928;28;20480;-83
2023/08/30 00:41:16;;;;;;;8.90;7.53;;;16.20;99.90;;;;;;5090849;28;20823;-81
2023/08/30 00:43:43;;;;;;;8.10;6.90;;;16.10;99.90;;;;;;5093410;28;20487;-79
2023/08/30 00:46:10;;;;;;;8.40;7.43;;;16.10;99.90;;;;;;5087683;28;20954;-83
2023/08/30 00:48:36;;;;;;;7.47;6.77;;;16.00;99.90;;;;;;5091195;28;20575;-81
2023/08/30 00:51:07;;;;;;;7.03;6.40;;;16.00;99.90;;;;;;5088260;28;20485;-81
2023/08/30 00:53:35;;;;;;;7.87;6.90;;;16.00;99.90;;;;;;5089862;28;20519;-80
2023/08/30 00:56:02;;;;;;;7.40;6.60;;;16.00;99.90;;;;;;5083466;28;20543;-81
2023/08/30 00:58:28;;;;;;;8.47;7.07;;;16.00;99.90;;;;;;5089782;28;20993;-80
2023/08/30 01:00:56;;;;;;;8.57;7.67;;;16.00;99.90;;;;;;5082257;28;20458;-80
2023/08/30 01:03:23;;;;;;;8.03;7.23;;;16.00;99.90;;;;;;5091770;28;20496;-80
2023/08/30 01:05:49;;;;;;;8.83;7.30;;;15.90;99.90;;;;;;5079372;28;20465;-81
2023/08/30 01:08:16;;;;;;;10.90;7.30;;;15.90;99.90;;;;;;5095404;28;20447;-82
2023/08/30 01:10:54;;;;;;;8.33;7.37;;;15.80;99.90;;;;;;5094066;28;20472;-82
2023/08/30 01:13:22;;;;;;;8.17;7.30;;;15.90;99.90;;;;;;5093287;28;20460;-80
2023/08/30 01:15:50;;;;;;;9.13;7.90;;;15.80;99.90;;;;;;5091053;28;20486;-82
2023/08/30 01:18:20;;;;;;;8.13;7.30;;;15.80;99.90;;;;;;5079119;28;20454;-83
2023/08/30 01:20:48;;;;;;;8.00;7.20;;;15.80;99.90;;;;;;5092058;28;20451;-81
2023/08/30 01:23:27;;;;;;;9.17;8.17;;;15.80;99.90;;;;;;5074889;28;20478;-82
2023/08/30 01:26:13;;;;;;;10.77;8.50;;;15.70;99.90;;;;;;5089628;28;20476;-81
2023/08/30 01:28:42;;;;;;;10.23;7.60;;;15.70;99.90;;;;;;5095717;28;20470;-80
2023/08/30 01:31:10;;;;;;;9.83;8.80;;;15.70;99.90;;;;;;5092353;28;20537;-81
2023/08/30 01:33:38;;;;;;;12.40;8.70;;;15.70;99.90;;;;;;5075797;28;20442;-81
2023/08/30 01:36:06;;;;;;;9.87;8.87;;;15.60;99.90;;;;;;5094854;28;20457;-81
2023/08/30 01:38:34;;;;;;;9.93;8.93;;;15.60;99.90;;;;;;5089830;28;20732;-81
2023/08/30 01:41:02;;;;;;;11.40;9.27;;;15.60;99.90;;;;;;5094788;28;20456;-83
2023/08/30 01:43:31;;;;;;;11.60;8.93;;;15.60;99.90;;;;;;5096231;28;20488;-80
2023/08/30 01:46:02;;;;;;;11.10;8.20;;;15.60;99.90;;;;;;5075295;28;20473;-82
2023/08/30 01:48:30;;;;;;;11.07;9.97;;;15.60;99.90;;;;;;5075388;28;20939;-81
2023/08/30 01:50:58;;;;;;;9.87;8.93;;;15.60;99.90;;;;;;5076296;28;20477;-81
2023/08/30 01:53:26;;;;;;;10.37;9.37;;;15.50;99.90;;;;;;5093078;28;20447;-81
2023/08/30 01:55:52;;;;;;;10.53;9.43;;;15.50;99.90;;;;;;5094450;28;20837;-82
2023/08/30 01:58:20;;;;;;;12.10;9.73;;;15.50;99.90;;;;;;5092936;28;20457;-81
2023/08/30 02:00:47;;;;;;;14.80;10.00;;;15.40;99.90;;;;;;5090734;28;20451;-84
2023/08/30 02:03:15;;;;;;;10.27;9.00;;;15.40;99.90;;;;;;5084998;28;20459;-82
2023/08/30 02:05:55;;;;;;;9.87;8.87;;;15.40;99.90;;;;;;5076667;28;20837;-81
2023/08/30 02:08:27;;;;;;;11.57;8.67;;;15.30;99.90;;;;;;5084303;28;20454;-81
2023/08/30 02:10:57;;;;;;;11.40;8.80;;;15.30;99.90;;;;;;5094757;28;20448;-81
2023/08/30 02:13:29;;;;;;;11.63;9.87;;;15.30;99.90;;;;;;5096997;28;20445;-81
2023/08/30 02:15:57;;;;;;;11.40;10.07;;;15.30;99.90;;;;;;5076733;28;20446;-82
2023/08/30 02:18:27;;;;;;;10.80;8.87;;;15.30;99.90;;;;;;5093996;28;20461;-82
2023/08/30 02:20:55;;;;;;;11.70;10.23;;;15.30;99.90;;;;;;5095377;28;20442;-81
2023/08/30 02:23:24;;;;;;;14.13;9.80;;;15.40;99.90;;;;;;5078241;28;20451;-81
2023/08/30 02:25:51;;;;;;;11.17;9.87;;;15.30;99.90;;;;;;5076281;28;20437;-83
2023/08/30 02:28:17;;;;;;;11.67;10.47;;;15.40;99.90;;;;;;5089010;28;21073;-81
2023/08/30 02:30:44;;;;;;;13.67;11.00;;;15.30;99.90;;;;;;5079733;28;20447;-82
2023/08/30 02:33:11;;;;;;;11.83;10.13;;;15.30;99.90;;;;;;5090625;28;20454;-82
2023/08/30 02:35:39;;;;;;;11.30;9.83;;;15.20;99.90;;;;;;5075550;28;20446;-82
2023/08/30 02:38:07;;;;;;;11.50;10.23;;;15.20;99.90;;;;;;5076674;28;20521;-83
2023/08/30 02:40:34;;;;;;;13.10;10.70;;;15.20;99.90;;;;;;5075961;28;20563;-81
2023/08/30 02:43:01;;;;;;;10.73;9.63;;;15.20;99.90;;;;;;5077316;28;20462;-82
2023/08/30 02:45:27;;;;;;;11.27;10.07;;;15.20;99.90;;;;;;5090504;28;20546;-84
2023/08/30 02:47:57;;;;;;;11.70;10.53;;;15.20;99.90;;;;;;5096331;28;20456;-80
2023/08/30 02:50:24;;;;;;;11.40;9.70;;;15.20;99.90;;;;;;5082076;28;21012;-82
2023/08/30 02:52:52;;;;;;;11.43;10.27;;;15.20;99.90;;;;;;5091342;28;20457;-82
2023/08/30 02:55:19;;;;;;;11.97;10.30;;;15.10;99.90;;;;;;5090228;28;20457;-82
2023/08/30 02:57:47;;;;;;;11.63;10.40;;;15.10;99.90;;;;;;5084908;28;20538;-83
2023/08/30 03:00:15;;;;;;;13.33;11.33;;;15.10;99.90;;;;;;5085569;28;20485;-83
2023/08/30 03:02:42;;;;;;;11.73;9.90;;;15.10;99.90;;;;;;5089148;28;20450;-82
2023/08/30 03:05:09;;;;;;;11.87;10.77;;;15.10;99.90;;;;;;5078832;28;20570;-83
2023/08/30 03:07:36;;;;;;;13.47;12.17;;;15.00;99.90;;;;;;5077777;28;20457;-82
2023/08/30 03:10:04;;;;;;;12.77;11.53;;;15.00;99.90;;;;;;5078246;28;20482;-82
2023/08/30 03:12:31;;;;;;;11.30;10.20;;;15.00;99.90;;;;;;5080351;28;20458;-79
2023/08/30 03:14:58;;;;;;;11.47;10.30;;;15.00;99.90;;;;;;5093800;28;20443;-82
2023/08/30 03:17:24;;;;;;;13.47;10.63;;;15.00;99.90;;;;;;5092992;28;20463;-81
2023/08/30 03:19:53;;;;;;;13.63;11.97;;;14.90;99.90;;;;;;5083275;28;21006;-81
2023/08/30 03:22:20;;;;;;;14.20;10.73;;;14.90;99.90;;;;;;5074362;28;20461;-82
2023/08/30 03:24:47;;;;;;;12.10;10.90;;;15.00;99.90;;;;;;5091753;28;20517;-79
2023/08/30 03:27:15;;;;;;;16.13;12.80;;;15.00;99.90;;;;;;5092736;28;20544;-81
2023/08/30 03:29:42;;;;;;;14.47;13.00;;;14.90;99.90;;;;;;5074999;28;21043;-82
2023/08/30 03:32:09;;;;;;;16.73;14.57;;;14.90;99.90;;;;;;5073547;28;20462;-81
2023/08/30 03:34:36;;;;;;;17.50;14.07;;;14.90;99.90;;;;;;5088944;28;20450;-81
2023/08/30 03:37:02;;;;;;;17.30;14.30;;;14.90;99.90;;;;;;5093748;28;20495;-83
2023/08/30 03:39:29;;;;;;;15.60;14.00;;;14.90;99.90;;;;;;5093335;28;20892;-79
2023/08/30 03:41:56;;;;;;;16.00;14.30;;;14.90;99.90;;;;;;5093036;28;20456;-81
2023/08/30 03:44:25;;;;;;;19.10;16.50;;;14.90;99.90;;;;;;5093128;28;20492;-82
2023/08/30 03:46:52;;;;;;;17.40;15.50;;;14.80;99.90;;;;;;5092982;28;20996;-81
2023/08/30 03:49:18;;;;;;;21.20;15.17;;;14.80;99.90;;;;;;5089506;28;20667;-81
2023/08/30 03:51:45;;;;;;;16.70;14.90;;;14.90;99.90;;;;;;5079635;28;20464;-83
2023/08/30 03:54:16;;;;;;;19.23;14.97;;;14.90;99.90;;;;;;5095148;28;20454;-82
2023/08/30 03:56:43;;;;;;;20.27;16.10;;;14.80;99.90;;;;;;5094394;28;20445;-81
2023/08/30 03:59:10;;;;;;;19.67;15.50;;;14.80;99.90;;;;;;5095617;28;20537;-81
2023/08/30 04:01:38;;;;;;;17.30;15.50;;;14.80;99.90;;;;;;5093648;28;20561;-81
2023/08/30 04:04:05;;;;;;;19.17;17.17;;;14.80;99.90;;;;;;5092073;28;20953;-80
2023/08/30 04:06:32;;;;;;;18.30;16.37;;;14.80;99.90;;;;;;5078035;28;20458;-83
2023/08/30 04:08:59;;;;;;;17.23;15.43;;;14.80;99.90;;;;;;5094994;28;20915;-81
2023/08/30 04:11:26;;;;;;;20.33;15.33;;;14.80;99.90;;;;;;5095590;28;20484;-82
2023/08/30 04:13:53;;;;;;;17.70;15.90;;;14.80;99.90;;;;;;5094939;28;20547;-82
2023/08/30 04:16:20;;;;;;;19.20;15.13;;;14.70;99.90;;;;;;5095293;28;20454;-81
2023/08/30 04:18:48;;;;;;;19.07;16.17;;;14.70;99.90;;;;;;5094350;28;20475;-83
2023/08/30 04:21:15;;;;;;;18.60;15.57;;;14.70;99.90;;;;;;5082062;28;20454;-82
2023/08/30 04:23:41;;;;;;;16.57;14.83;;;14.70;99.90;;;;;;5094576;28;20447;-81
2023/08/30 04:26:08;;;;;;;17.93;15.63;;;14.70;99.90;;;;;;5078708;28;20864;-82
2023/08/30 04:28:35;;;;;;;18.00;15.33;;;14.70;99.90;;;;;;5075599;28;21012;-83
2023/08/30 04:31:02;;;;;;;16.80;15.00;;;14.60;99.90;;;;;;5091288;28;20452;-83
2023/08/30 04:33:28;;;;;;;17.63;15.83;;;14.70;99.90;;;;;;5096789;28;20472;-81
2023/08/30 04:35:57;;;;;;;19.17;16.20;;;14.70;99.90;;;;;;5077092;28;20452;-83
2023/08/30 04:38:24;;;;;;;16.80;14.90;;;14.60;99.90;;;;;;5076605;28;20533;-81
2023/08/30 04:40:50;;;;;;;18.00;16.07;;;14.60;99.90;;;;;;5076851;28;20451;-82
2023/08/30 04:43:17;;;;;;;18.00;15.97;;;14.60;99.90;;;;;;5079750;28;20491;-80
2023/08/30 04:45:44;;;;;;;18.90;15.60;;;14.60;99.90;;;;;;5086783;28;20561;-80
2023/08/30 04:48:11;;;;;;;21.00;16.43;;;14.60;99.90;;;;;;5094480;28;20492;-81
2023/08/30 04:50:38;;;;;;;16.90;15.10;;;14.50;99.90;;;;;;5110557;28;20501;-81
2023/08/30 04:53:06;;;;;;;17.90;15.67;;;14.60;99.90;;;;;;5103664;28;20453;-81
2023/08/30 04:55:32;;;;;;;18.30;15.50;;;14.60;99.90;;;;;;5104053;28;20454;-80
2023/08/30 04:57:59;;;;;;;24.13;17.33;;;14.50;99.90;;;;;;5101066;28;20492;-80
2023/08/30 05:00:26;;;;;;;19.10;17.10;;;14.50;99.90;;;;;;5100621;28;20855;-82
2023/08/30 05:02:56;;;;;;;18.90;17.00;;;14.60;99.90;;;;;;5095762;28;20453;-79
2023/08/30 05:05:23;;;;;;;20.50;17.70;;;14.60;99.90;;;;;;5094029;28;21027;-81
2023/08/30 05:07:50;;;;;;;21.40;17.60;;;14.60;99.90;;;;;;5081495;28;20453;-81
2023/08/30 05:10:18;;;;;;;19.50;17.50;;;14.60;99.90;;;;;;5075699;28;20503;-82
2023/08/30 05:12:49;;;;;;;20.40;18.20;;;14.60;99.90;;;;;;5080571;28;20452;-82
2023/08/30 05:15:16;;;;;;;21.03;18.17;;;14.60;99.90;;;;;;5093104;28;20436;-79
2023/08/30 05:17:43;;;;;;;21.43;17.03;;;14.60;99.90;;;;;;5085478;28;20960;-80
2023/08/30 05:20:10;;;;;;;22.80;17.90;;;14.70;99.90;;;;;;5142586;22;20589;-81
2023/08/30 05:22:37;;;;;;;20.67;18.53;;;14.60;99.90;;;;;;5062086;28;20465;-81
2023/08/30 05:25:04;;;;;;;25.30;19.43;;;14.70;99.90;;;;;;5056876;28;20481;-79
2023/08/30 05:27:33;;;;;;;24.17;20.00;;;14.70;99.90;;;;;;5056328;28;20523;-82
2023/08/30 05:29:59;;;;;;;25.17;21.00;;;14.70;99.90;;;;;;5057770;28;20482;-82
2023/08/30 05:32:26;;;;;;;22.80;19.97;;;14.70;99.90;;;;;;5072175;28;20537;-81
2023/08/30 05:34:53;;;;;;;22.07;19.10;;;14.70;99.90;;;;;;5062661;28;20460;-79
2023/08/30 05:37:20;;;;;;;22.97;20.47;;;14.70;99.90;;;;;;5054466;28;20449;-83
2023/08/30 05:39:47;;;;;;;21.10;18.87;;;14.80;99.90;;;;;;5059271;28;20475;-79
2023/08/30 05:42:14;;;;;;;25.70;21.00;;;14.80;99.90;;;;;;5056807;28;20446;-80
2023/08/30 05:44:42;;;;;;;28.97;23.90;;;14.80;99.90;;;;;;5056624;28;20491;-81
2023/08/30 05:47:14;;;;;;;24.23;20.73;;;14.80;99.90;;;;;;5054577;28;20458;-80
2023/08/30 05:49:41;;;;;;;24.00;20.53;;;14.80;99.90;;;;;;5060284;28;20490;-81
2023/08/30 05:52:08;;;;;;;23.13;20.77;;;14.80;99.90;;;;;;5061826;28;20460;-80
2023/08/30 05:54:35;;;;;;;23.07;20.60;;;14.80;99.90;;;;;;5056019;28;20454;-80
2023/08/30 05:57:02;;;;;;;27.23;22.27;;;14.90;99.90;;;;;;5055336;28;20445;-80
2023/08/30 05:59:29;;;;;;;26.47;21.27;;;14.90;99.90;;;;;;5055732;28;21062;-81
2023/08/30 06:01:57;;;;;;;25.90;21.90;;;14.90;99.90;;;;;;5070267;28;20982;-80
2023/08/30 06:04:24;;;;;;;23.93;21.40;;;14.90;99.90;;;;;;5075545;28;20538;-80
2023/08/30 06:06:50;;;;;;;23.77;21.23;;;15.00;99.90;;;;;;5064667;28;20545;-80
2023/08/30 06:09:18;;;;;;;25.40;22.27;;;15.00;99.90;;;;;;5075375;28;20473;-80
2023/08/30 06:11:45;;;;;;;23.30;20.87;;;15.00;99.90;;;;;;5074517;28;20449;-79
2023/08/30 06:14:11;;;;;;;24.87;20.57;;;15.10;99.90;;;;;;5069226;28;20915;-81
2023/08/30 06:16:38;;;;;;;24.03;20.80;;;15.10;99.90;;;;;;5074277;28;20438;-80
2023/08/30 06:19:06;;;;;;;23.97;21.50;;;15.10;99.90;;;;;;5074062;28;20464;-80
2023/08/30 06:21:33;;;;;;;23.30;20.70;;;15.10;99.90;;;;;;5061434;28;20453;-80
2023/08/30 06:24:00;;;;;;;27.90;22.07;;;15.20;99.90;;;;;;5054654;28;20438;-79
2023/08/30 06:26:27;;;;;;;25.73;21.63;;;15.20;99.90;;;;;;5054003;28;20476;-80
2023/08/30 06:28:54;;;;;;;26.57;20.30;;;15.30;99.90;;;;;;5053650;28;20462;-79
2023/08/30 06:31:20;;;;;;;24.53;21.90;;;15.30;99.90;;;;;;5054506;28;20493;-80
2023/08/30 06:33:48;;;;;;;25.43;22.23;;;15.40;99.90;;;;;;5056056;28;20448;-80
2023/08/30 06:36:23;;;;;;;29.70;22.20;;;15.40;99.90;;;;;;5046940;28;20470;-81
2023/08/30 06:38:49;;;;;;;24.57;21.53;;;15.50;99.90;;;;;;5042399;28;20466;-79
2023/08/30 06:41:16;;;;;;;26.73;21.10;;;15.50;99.90;;;;;;5061955;28;20457;-79
2023/08/30 06:43:43;;;;;;;27.67;24.73;;;15.50;99.90;;;;;;5070213;28;20463;-80
2023/08/30 06:46:10;;;;;;;29.13;23.67;;;15.50;99.90;;;;;;5054034;28;20494;-80
2023/08/30 06:48:37;;;;;;;26.97;22.17;;;15.60;99.90;;;;;;5055680;28;20450;-81
2023/08/30 06:51:04;;;;;;;25.23;22.30;;;15.60;99.90;;;;;;5064303;28;20481;-82
2023/08/30 06:53:32;;;;;;;24.90;22.20;;;15.70;99.90;;;;;;5056250;28;20448;-80
2023/08/30 06:56:00;;;;;;;30.57;22.43;;;15.90;99.90;;;;;;5051847;28;20479;-80
2023/08/30 06:58:27;;;;;;;33.27;25.70;;;15.90;99.90;;;;;;5056386;28;20979;-80
2023/08/30 07:00:54;;;;;;;27.53;21.17;;;16.00;99.90;;;;;;5056288;28;20480;-79
2023/08/30 07:03:21;;;;;;;24.23;21.53;;;16.10;99.90;;;;;;5050385;28;20531;-81
2023/08/30 07:05:48;;;;;;;28.63;21.90;;;16.10;99.90;;;;;;5054193;28;20488;-82
2023/08/30 07:08:15;;;;;;;24.90;22.00;;;16.10;99.90;;;;;;5052457;28;20452;-80
2023/08/30 07:10:43;;;;;;;24.37;20.40;;;16.10;99.90;;;;;;5052352;28;20558;-80
2023/08/30 07:13:11;;;;;;;20.07;17.67;;;16.20;99.90;;;;;;5050995;28;20452;-81
2023/08/30 07:15:39;;;;;;;20.80;18.70;;;16.30;99.90;;;;;;5048489;28;20449;-80
2023/08/30 07:18:06;;;;;;;22.30;18.27;;;16.40;99.90;;;;;;5052878;28;20449;-80
2023/08/30 07:20:33;;;;;;;20.37;18.20;;;16.40;99.90;;;;;;5052426;28;20477;-80
2023/08/30 07:23:00;;;;;;;26.70;19.40;;;16.40;99.90;;;;;;5053457;28;20449;-80
2023/08/30 07:25:27;;;;;;;21.23;18.23;;;16.50;99.90;;;;;;5052209;28;20570;-81
2023/08/30 07:27:55;;;;;;;18.67;16.77;;;16.50;99.90;;;;;;5051980;28;20469;-79
2023/08/30 07:30:22;;;;;;;20.23;17.37;;;16.60;99.90;;;;;;5051527;28;20559;-80
2023/08/30 07:32:49;;;;;;;19.37;16.73;;;16.60;99.90;;;;;;5052266;28;20478;-79
2023/08/30 07:35:16;;;;;;;16.97;15.27;;;16.60;99.90;;;;;;5051962;28;20444;-78
2023/08/30 07:37:43;;;;;;;14.50;12.67;;;16.60;99.90;;;;;;5051491;28;20436;-78
2023/08/30 07:40:11;;;;;;;19.37;15.63;;;16.80;99.90;;;;;;5052333;28;20505;-80
2023/08/30 07:42:38;;;;;;;17.00;14.33;;;16.80;99.90;;;;;;5051815;28;20457;-80
2023/08/30 07:45:07;;;;;;;18.13;16.23;;;16.90;99.90;;;;;;5051490;28;20532;-80
2023/08/30 07:47:34;;;;;;;15.77;14.27;;;17.00;99.90;;;;;;5048494;28;20900;-80
2023/08/30 07:50:01;;;;;;;19.17;13.80;;;17.10;99.90;;;;;;5051000;28;20486;-80
2023/08/30 07:52:28;;;;;;;19.40;14.27;;;17.00;99.90;;;;;;5051323;28;20588;-80
2023/08/30 07:54:54;;;;;;;12.13;10.80;;;17.10;99.90;;;;;;5054061;28;21169;-80
2023/08/30 07:57:21;;;;;;;14.43;12.00;;;17.20;99.90;;;;;;5049518;28;20470;-80
2023/08/30 07:59:48;;;;;;;12.77;11.57;;;17.20;99.90;;;;;;5054924;28;20478;-81
2023/08/30 08:02:16;;;;;;;16.53;11.60;;;17.30;99.90;;;;;;5050941;28;20544;-80
2023/08/30 08:04:43;;;;;;;15.50;11.00;;;17.40;99.90;;;;;;5051798;28;20458;-79
2023/08/30 08:07:10;;;;;;;12.20;10.90;;;17.40;99.90;;;;;;5051031;28;20490;-81
2023/08/30 08:09:37;;;;;;;13.73;10.27;;;17.50;99.90;;;;;;5055785;28;20567;-82
2023/08/30 08:12:05;;;;;;;9.80;8.70;;;17.50;99.90;;;;;;5052543;28;20526;-81
2023/08/30 08:14:31;;;;;;;11.50;8.30;;;17.60;99.90;;;;;;5053975;28;20466;-82
2023/08/30 08:16:58;;;;;;;9.20;8.20;;;17.70;99.90;;;;;;5057136;28;20464;-81
2023/08/30 08:19:26;;;;;;;10.00;7.77;;;17.80;99.90;;;;;;5059117;28;20541;-81
2023/08/30 08:21:54;;;;;;;9.47;7.40;;;17.80;99.90;;;;;;5053683;28;20923;-82
2023/08/30 08:24:21;;;;;;;8.97;7.90;;;17.80;99.90;;;;;;5054529;28;20471;-81
2023/08/30 08:26:48;;;;;;;7.03;6.33;;;17.70;99.90;;;;;;5057729;28;20491;-81
2023/08/30 08:29:15;;;;;;;8.13;6.43;;;17.80;99.90;;;;;;5058073;28;20476;-82
2023/08/30 08:31:41;;;;;;;7.60;5.63;;;18.00;99.90;;;;;;5058829;28;20467;-79
2023/08/30 08:34:13;;;;;;;6.17;5.20;;;18.10;99.90;;;;;;5056771;28;20465;-81
2023/08/30 08:36:43;;;;;;;6.90;6.00;;;18.20;99.90;;;;;;5055606;28;20454;-81
2023/08/30 08:39:10;;;;;;;7.50;5.63;;;18.30;99.90;;;;;;5054847;28;20436;-81
2023/08/30 08:41:45;;;;;;;6.70;4.40;;;18.50;99.90;;;;;;5058897;28;20951;-81
2023/08/30 08:44:13;;;;;;;8.23;5.30;;;18.80;99.90;;;;;;5059853;28;20443;-82
2023/08/30 08:46:41;;;;;;;5.60;4.60;;;18.80;99.90;;;;;;5056389;28;20578;-81
2023/08/30 08:49:12;;;;;;;8.47;4.60;;;18.70;99.90;;;;;;5058204;28;20462;-81
2023/08/30 08:51:42;;;;;;;5.53;4.30;;;18.80;99.90;;;;;;5055354;28;20494;-81
2023/08/30 08:54:10;;;;;;;6.00;4.13;;;18.80;99.90;;;;;;5060141;28;20447;-81
2023/08/30 08:56:38;;;;;;;5.27;3.90;;;18.80;99.90;;;;;;5055682;28;20462;-81
2023/08/30 08:59:06;;;;;;;5.20;4.23;;;18.80;99.90;;;;;;5055882;28;20455;-82
2023/08/30 09:01:36;;;;;;;9.93;4.13;;;18.70;99.90;;;;;;5058255;28;20452;-81
2023/08/30 09:04:08;;;;;;;6.17;4.00;;;18.80;99.90;;;;;;5058689;28;20480;-81
2023/08/30 09:06:39;;;;;;;4.93;4.30;;;18.80;99.90;;;;;;5058914;28;20480;-81
2023/08/30 09:09:09;;;;;;;5.27;4.10;;;18.70;99.90;;;;;;5058887;28;20790;-80
2023/08/30 09:11:41;;;;;;;5.43;4.30;;;18.70;99.90;;;;;;5056666;28;20448;-79
2023/08/30 09:14:10;;;;;;;6.10;4.97;;;18.70;99.90;;;;;;5057987;28;20446;-81
2023/08/30 09:16:37;;;;;;;5.73;4.30;;;18.70;99.90;;;;;;5056978;28;20455;-81
2023/08/30 09:19:05;;;;;;;7.27;3.90;;;18.70;99.90;;;;;;5057104;28;20531;-81
2023/08/30 09:21:32;;;;;;;6.97;4.37;;;18.90;99.90;;;;;;5058050;28;20441;-82
2023/08/30 09:24:01;;;;;;;5.40;4.10;;;18.80;99.90;;;;;;5058150;28;20511;-81
2023/08/30 09:26:31;;;;;;;5.17;3.90;;;18.80;99.90;;;;;;5057597;28;20821;-81
2023/08/30 09:29:02;;;;;;;6.00;4.30;;;19.10;99.90;;;;;;5056607;28;20859;-81
2023/08/30 09:31:34;;;;;;;11.13;4.20;;;19.20;99.90;;;;;;5057866;28;20513;-81
2023/08/30 09:34:01;;;;;;;5.33;4.27;;;19.40;99.90;;;;;;5057921;28;20559;-81
2023/08/30 09:36:33;;;;;;;6.87;3.93;;;19.20;99.90;;;;;;5056441;28;20552;-81
2023/08/30 09:39:03;;;;;;;5.80;4.20;;;19.20;99.90;;;;;;5055646;28;20455;-81
2023/08/30 09:41:32;;;;;;;6.10;3.87;;;19.30;99.90;;;;;;5056609;28;20444;-80
2023/08/30 09:44:00;;;;;;;8.43;4.30;;;19.50;99.90;;;;;;5044869;28;20455;-80
2023/08/30 09:46:27;;;;;;;5.30;4.40;;;19.60;99.90;;;;;;5056689;28;20584;-81
2023/08/30 09:48:54;;;;;;;9.00;4.33;;;19.60;99.90;;;;;;5055307;28;20460;-80
2023/08/30 09:51:24;;;;;;;6.40;4.03;;;19.70;99.90;;;;;;5057863;28;20454;-80
2023/08/30 09:53:59;;;;;;;8.07;4.70;;;19.70;99.90;;;;;;5056338;28;20539;-80
2023/08/30 09:56:27;;;;;;;6.77;5.03;;;19.60;99.90;;;;;;5056846;28;20482;-80
2023/08/30 09:58:56;;;;;;;8.20;4.10;;;19.70;99.90;;;;;;5068237;28;20530;-80
2023/08/30 10:01:23;;;;;;;9.83;5.03;;;19.90;99.90;;;;;;5058216;28;20455;-79
2023/08/30 10:03:51;;;;;;;5.67;4.67;;;20.00;99.90;;;;;;5062140;28;21013;-80
2023/08/30 10:06:18;;;;;;;7.67;4.40;;;20.10;99.90;;;;;;5055198;28;20494;-79
2023/08/30 10:08:51;;;;;;;7.10;4.93;;;19.70;99.90;;;;;;5057525;28;20466;-79
2023/08/30 10:11:19;;;;;;;6.90;4.50;;;19.60;99.90;;;;;;5056316;28;20444;-79
2023/08/30 10:13:48;;;;;;;5.70;3.90;;;19.30;99.90;;;;;;5057146;28;20491;-81
2023/08/30 10:16:20;;;;;;;6.50;4.60;;;19.10;99.90;;;;;;5056648;28;20448;-80
2023/08/30 10:18:51;;;;;;;6.47;5.27;;;18.90;99.90;;;;;;5054781;28;20448;-79
2023/08/30 10:21:20;;;;;;;6.17;5.10;;;18.60;99.90;;;;;;5056060;28;20467;-79
2023/08/30 10:23:48;;;;;;;7.00;5.00;;;18.40;99.90;;;;;;5056746;28;20458;-78
2023/08/30 10:26:20;;;;;;;5.67;5.17;;;17.90;99.90;;;;;;5054411;28;20858;-79
2023/08/30 10:28:47;;;;;;;7.43;5.20;;;17.90;99.90;;;;;;5055790;28;20442;-79
2023/08/30 10:31:16;;;;;;;9.80;5.60;;;17.60;99.90;;;;;;5054880;28;20562;-78
2023/08/30 10:33:49;;;;;;;7.30;6.60;;;17.40;99.90;;;;;;5055457;28;20495;-80
2023/08/30 10:36:22;;;;;;;7.70;5.57;;;17.30;99.90;;;;;;5054362;28;20440;-80
2023/08/30 10:38:50;;;;;;;7.07;6.20;;;17.20;99.90;;;;;;5055327;28;20443;-79
2023/08/30 10:41:22;;;;;;;10.57;6.90;;;17.00;99.90;;;;;;5054169;28;20558;-79
2023/08/30 10:43:52;;;;;;;8.57;6.97;;;17.00;99.90;;;;;;5055400;28;20444;-81
2023/08/30 10:46:31;;;;;;;8.83;7.17;;;17.00;99.90;;;;;;5053867;28;20513;-79
2023/08/30 10:49:10;;;;;;;8.20;7.40;;;16.80;99.90;;;;;;5053989;28;20443;-80
2023/08/30 10:51:38;;;;;;;11.30;8.17;;;16.90;99.90;;;;;;5055091;28;20459;-79
2023/08/30 10:54:12;;;;;;;9.23;6.90;;;16.80;99.90;;;;;;5056557;28;20446;-79
2023/08/30 10:56:48;;;;;;;11.03;7.67;;;16.80;99.90;;;;;;5053293;28;20531;-78
2023/08/30 10:59:19;;;;;;;8.70;7.63;;;16.70;99.90;;;;;;5053599;28;20481;-79
2023/08/30 11:01:49;;;;;;;9.73;8.83;;;16.60;99.90;;;;;;5054045;28;20452;-79
2023/08/30 11:04:17;;;;;;;11.70;10.50;;;16.50;99.90;;;;;;5052982;28;20449;-79
2023/08/30 11:06:46;;;;;;;11.23;10.07;;;16.50;99.90;;;;;;5053572;28;20547;-78
2023/08/30 11:09:15;;;;;;;15.20;11.83;;;16.50;99.90;;;;;;5053530;28;20558;-79
2023/08/30 11:11:44;;;;;;;13.07;10.37;;;16.40;99.90;;;;;;5053301;28;20456;-80
2023/08/30 11:14:11;;;;;;;13.47;12.07;;;16.30;99.90;;;;;;5053578;28;20436;-81
2023/08/30 11:16:39;;;;;;;12.33;11.03;;;16.30;99.90;;;;;;5060305;28;20515;-81
2023/08/30 11:19:08;;;;;;;12.17;10.20;;;16.30;99.90;;;;;;5071445;28;20449;-77
2023/08/30 11:21:37;;;;;;;11.80;9.87;;;16.20;99.90;;;;;;5081470;22;20576;-81
2023/08/30 11:24:05;;;;;;;18.53;14.43;;;16.10;99.90;;;;;;5063924;28;20547;-79
2023/08/30 11:26:32;;;;;;;15.87;10.60;;;16.10;99.90;;;;;;5068081;28;20494;-82
2023/08/30 11:28:58;;;;;;;13.47;11.50;;;16.10;99.90;;;;;;5066867;28;20498;-80
2023/08/30 11:31:27;;;;;;;13.30;12.00;;;16.20;99.90;;;;;;5075210;28;20481;-80
2023/08/30 11:33:55;;;;;;;13.87;11.30;;;16.30;99.90;;;;;;5073241;28;20959;-80
2023/08/30 11:36:24;;;;;;;15.83;13.90;;;16.20;99.90;;;;;;5073678;28;20827;-81
2023/08/30 11:38:52;;;;;;;17.00;12.97;;;16.20;99.90;;;;;;5071591;28;20559;-80
2023/08/30 11:41:20;;;;;;;13.30;11.90;;;16.10;99.90;;;;;;5055147;28;20476;-79
2023/08/30 11:43:48;;;;;;;12.90;11.70;;;16.20;99.90;;;;;;5068504;28;20465;-81
2023/08/30 11:46:15;;;;;;;12.40;11.03;;;16.00;99.90;;;;;;5054685;28;20539;-81
2023/08/30 11:48:42;;;;;;;13.43;12.13;;;16.00;99.90;;;;;;5073270;28;20835;-80
2023/08/30 11:51:10;;;;;;;15.33;13.73;;;16.10;99.90;;;;;;5074534;28;20470;-82
2023/08/30 11:53:39;;;;;;;15.07;12.20;;;16.00;99.90;;;;;;5074174;28;20482;-82
2023/08/30 11:56:07;;;;;;;14.97;13.50;;;16.10;99.90;;;;;;5075195;28;20454;-83
2023/08/30 11:58:34;;;;;;;10.83;9.70;;;16.10;99.90;;;;;;5073039;28;20448;-82
2023/08/30 12:01:02;;;;;;;10.73;9.63;;;16.00;99.90;;;;;;5074622;28;21025;-80
2023/08/30 12:03:30;;;;;;;8.87;7.97;;;16.00;99.90;;;;;;5074185;28;20502;-81
2023/08/30 12:05:57;;;;;;;8.47;6.90;;;16.00;99.90;;;;;;5073907;28;20483;-85
2023/08/30 12:08:25;;;;;;;5.87;5.27;;;16.00;99.90;;;;;;5074291;28;20511;-83
2023/08/30 12:10:54;;;;;;;8.70;6.17;;;16.00;99.90;;;;;;5073935;28;20486;-82
2023/08/30 12:13:24;;;;;;;6.10;5.50;;;15.90;99.90;;;;;;5060936;28;20459;-81
2023/08/30 12:15:52;;;;;;;5.33;4.90;;;15.90;99.90;;;;;;5057338;28;20534;-81
2023/08/30 12:18:23;;;;;;;6.50;5.10;;;15.90;99.90;;;;;;5053870;28;20528;-81
2023/08/30 12:20:54;;;;;;;6.60;4.30;;;15.90;99.90;;;;;;5043028;28;20476;-83
2023/08/30 12:23:21;;;;;;;7.20;5.23;;;15.90;99.90;;;;;;5067583;28;20443;-83
2023/08/30 12:26:00;;;;;;;7.20;5.40;;;16.00;99.90;;;;;;5064494;28;20531;-83
2023/08/30 12:28:27;;;;;;;6.83;4.83;;;15.90;99.90;;;;;;5063597;28;20549;-82
2023/08/30 12:30:53;;;;;;;6.40;5.80;;;16.00;99.90;;;;;;5070997;28;20474;-83
2023/08/30 12:33:21;;;;;;;5.83;4.90;;;16.00;99.90;;;;;;5072843;28;20830;-81
2023/08/30 12:35:48;;;;;;;6.60;4.60;;;16.10;99.90;;;;;;5056925;28;20460;-82
2023/08/30 12:38:17;;;;;;;5.53;4.57;;;16.10;99.90;;;;;;5071051;28;20454;-84
2023/08/30 12:40:45;;;;;;;4.83;4.17;;;16.20;99.90;;;;;;5063140;28;20489;-85